createdAt,value
2022-12-16T00:00:31.412Z,1.80
2022-12-16T00:03:33.417Z,1.73
2022-12-16T00:06:35.365Z,1.90
2022-12-16T00:09:37.088Z,1.88
2022-12-16T00:12:38.650Z,1.85
2022-12-16T00:15:40.111Z,1.70
2022-12-16T00:18:42.031Z,1.77
2022-12-16T00:21:43.574Z,1.77
2022-12-16T00:24:45.104Z,1.80
2022-12-16T00:27:46.571Z,1.80
2022-12-16T00:30:50.391Z,1.60
2022-12-16T00:33:56.811Z,1.70
2022-12-16T00:36:58.293Z,1.55
2022-12-16T00:39:59.742Z,1.70
2022-12-16T00:43:01.680Z,1.80
2022-12-16T00:46:03.465Z,1.90
2022-12-16T00:49:05.121Z,1.70
2022-12-16T00:52:06.574Z,1.75
2022-12-16T00:55:08.493Z,1.65
2022-12-16T00:58:10.506Z,1.65
2022-12-16T01:01:12.526Z,1.70
2022-12-16T01:04:14.106Z,1.50
2022-12-16T01:07:15.630Z,1.65
2022-12-16T01:10:17.268Z,1.52
2022-12-16T01:13:20.290Z,1.67
2022-12-16T01:16:22.392Z,1.60
2022-12-16T01:19:23.981Z,1.50
2022-12-16T01:22:25.469Z,1.70
2022-12-16T01:25:26.982Z,1.50
2022-12-16T01:28:29.143Z,1.58
2022-12-16T01:31:30.941Z,1.50
2022-12-16T01:34:33.201Z,1.60
2022-12-16T01:37:34.688Z,1.70
2022-12-16T01:40:36.153Z,1.60
2022-12-16T01:43:39.326Z,1.58
2022-12-16T01:46:42.044Z,1.70
2022-12-16T01:49:50.222Z,1.40
2022-12-16T01:52:57.263Z,1.50
2022-12-16T01:56:00.505Z,1.45
2022-12-16T01:59:02.844Z,1.60
2022-12-16T02:02:04.933Z,1.60
2022-12-16T02:05:21.789Z,1.50
2022-12-16T02:08:23.370Z,1.60
2022-12-16T02:11:50.729Z,1.50
2022-12-16T02:21:25.617Z,1.60
2022-12-16T02:24:59.539Z,1.60
2022-12-16T02:28:00.929Z,1.70
2022-12-16T02:31:44.163Z,1.50
2022-12-16T02:34:59.249Z,1.70
2022-12-16T02:38:14.457Z,1.45
2022-12-16T02:41:30.769Z,1.55
2022-12-16T02:44:44.596Z,1.70
2022-12-16T02:47:46.554Z,1.50
2022-12-16T02:50:51.079Z,1.70
2022-12-16T02:53:55.538Z,1.60
2022-12-16T02:57:32.511Z,1.40
2022-12-16T03:01:12.377Z,1.30
2022-12-16T03:04:25.898Z,1.67
2022-12-16T03:07:31.334Z,1.60
2022-12-16T03:10:38.966Z,1.40
2022-12-16T03:13:48.022Z,1.60
2022-12-16T03:16:51.184Z,1.40
2022-12-16T03:19:58.932Z,1.63
2022-12-16T03:23:06.658Z,1.50
2022-12-16T03:26:14.210Z,1.50
2022-12-16T03:29:30.016Z,1.50
2022-12-16T03:32:54.645Z,1.45
2022-12-16T03:36:03.879Z,1.60
2022-12-16T03:39:08.273Z,1.50
2022-12-16T03:42:11.555Z,1.30
2022-12-16T03:45:19.322Z,1.40
2022-12-16T03:48:25.080Z,1.58
2022-12-16T03:51:26.593Z,1.37
2022-12-16T03:54:28.203Z,1.58
2022-12-16T03:57:29.666Z,1.45
2022-12-16T04:00:31.100Z,1.50
2022-12-16T04:03:32.949Z,1.48
2022-12-16T04:06:34.725Z,1.52
2022-12-16T04:09:36.221Z,1.55
2022-12-16T04:12:56.251Z,1.30
2022-12-16T04:16:16.513Z,1.40
2022-12-16T04:19:45.810Z,1.30
2022-12-16T04:23:05.793Z,1.25
2022-12-16T04:26:07.490Z,1.40
2022-12-16T04:29:08.944Z,1.50
2022-12-16T04:32:10.452Z,1.40
2022-12-16T04:35:38.647Z,1.40
2022-12-16T04:38:58.908Z,1.30
2022-12-16T04:42:18.873Z,1.30
2022-12-16T04:45:39.179Z,1.38
2022-12-16T04:48:59.160Z,1.40
2022-12-16T04:52:18.918Z,1.50
2022-12-16T04:55:38.832Z,1.50
2022-12-16T04:58:58.598Z,1.40
2022-12-16T05:02:18.431Z,1.42
2022-12-16T05:05:38.617Z,1.40
2022-12-16T05:08:58.879Z,1.20
2022-12-16T05:12:18.800Z,1.40
2022-12-16T05:15:39.032Z,1.30
2022-12-16T05:18:58.997Z,1.48
2022-12-16T05:22:18.739Z,1.20
2022-12-16T05:25:39.077Z,1.25
2022-12-16T05:28:58.917Z,1.30
2022-12-16T05:32:19.380Z,1.30
2022-12-16T05:35:39.523Z,1.27
2022-12-16T05:38:59.612Z,1.20
2022-12-16T05:42:19.959Z,1.10
2022-12-16T05:45:40.049Z,1.20
2022-12-16T05:49:00.380Z,1.20
2022-12-16T05:52:20.109Z,1.40
2022-12-16T05:55:39.969Z,1.20
2022-12-16T05:58:59.756Z,1.30
2022-12-16T06:02:19.649Z,1.20
2022-12-16T06:05:39.835Z,1.15
2022-12-16T06:08:59.946Z,1.10
2022-12-16T06:12:20.076Z,1.10
2022-12-16T06:15:40.092Z,1.10
2022-12-16T06:18:59.929Z,1.20
2022-12-16T06:22:20.067Z,1.23
2022-12-16T06:25:40.146Z,1.20
2022-12-16T06:29:00.098Z,1.20
2022-12-16T06:32:20.002Z,1.00
2022-12-16T06:35:39.881Z,1.10
2022-12-16T06:38:59.757Z,1.00
2022-12-16T06:42:19.614Z,1.10
2022-12-16T06:45:39.546Z,1.20
2022-12-16T06:48:59.699Z,1.00
2022-12-16T06:52:19.815Z,1.10
2022-12-16T06:55:40.296Z,1.05
2022-12-16T06:59:00.450Z,1.05
2022-12-16T07:02:23.695Z,1.10
2022-12-16T07:05:43.796Z,1.08
2022-12-16T07:09:03.741Z,1.10
2022-12-16T07:12:24.093Z,1.25
2022-12-16T07:15:44.004Z,0.95
2022-12-16T07:19:04.283Z,1.10
2022-12-16T07:22:24.338Z,1.10
2022-12-16T07:25:44.272Z,1.00
2022-12-16T07:29:04.486Z,1.10
2022-12-16T07:32:24.957Z,1.00
2022-12-16T07:35:45.032Z,1.20
2022-12-16T07:39:04.796Z,1.58
2022-12-16T07:42:25.034Z,1.10
2022-12-16T07:45:45.577Z,1.25
2022-12-16T07:49:05.733Z,1.05
2022-12-16T07:52:26.126Z,1.17
2022-12-16T07:55:45.988Z,1.08
2022-12-16T07:59:05.738Z,1.20
2022-12-16T08:02:28.480Z,1.13
2022-12-16T08:05:48.676Z,1.10
2022-12-16T08:09:08.686Z,1.08
2022-12-16T08:12:28.603Z,1.17
2022-12-16T08:15:48.804Z,1.00
2022-12-16T08:19:11.212Z,1.75
2022-12-16T08:22:31.305Z,3.33
2022-12-16T08:25:51.204Z,6.43
2022-12-16T08:29:35.223Z,8.77
2022-12-16T08:32:57.192Z,10.23
2022-12-16T08:36:18.746Z,10.35
2022-12-16T08:39:38.816Z,11.90
2022-12-16T08:42:58.742Z,14.48
2022-12-16T08:46:19.181Z,11.95
2022-12-16T08:49:39.551Z,11.98
2022-12-16T08:52:59.576Z,13.23
2022-12-16T08:56:19.431Z,12.25
2022-12-16T08:59:39.756Z,13.52
2022-12-16T09:02:59.817Z,15.93
2022-12-16T09:06:19.855Z,16.73
2022-12-16T09:09:39.976Z,16.65
2022-12-16T09:12:59.802Z,15.68
2022-12-16T09:16:24.205Z,15.85
2022-12-16T09:19:44.055Z,15.63
2022-12-16T09:23:03.999Z,15.20
2022-12-16T09:26:23.993Z,14.13
2022-12-16T09:29:45.206Z,14.52
2022-12-16T09:33:05.272Z,14.10
2022-12-16T09:36:25.575Z,13.57
2022-12-16T09:39:45.769Z,14.13
2022-12-16T09:43:19.400Z,13.75
2022-12-16T09:47:08.679Z,12.48
2022-12-16T09:50:40.272Z,13.18
2022-12-16T09:54:02.767Z,12.52
2022-12-16T09:57:23.776Z,11.45
2022-12-16T10:00:46.958Z,12.52
2022-12-16T10:04:06.891Z,11.32
2022-12-16T10:07:35.181Z,11.32
2022-12-16T10:11:25.829Z,12.45
2022-12-16T10:14:57.755Z,11.38
2022-12-16T10:18:21.242Z,11.50
2022-12-16T10:21:48.564Z,11.18
2022-12-16T10:25:24.588Z,10.52
2022-12-16T10:29:05.828Z,10.35
2022-12-16T10:32:38.007Z,10.60
2022-12-16T10:36:11.604Z,9.95
2022-12-16T10:39:50.129Z,9.45
2022-12-16T10:43:22.701Z,9.90
2022-12-16T10:46:47.823Z,9.63
2022-12-16T10:50:12.532Z,9.05
2022-12-16T10:53:43.437Z,9.27
2022-12-16T10:57:18.078Z,9.43
2022-12-16T11:00:56.052Z,9.52
2022-12-16T11:04:16.436Z,8.95
2022-12-16T11:07:58.120Z,8.52
2022-12-16T11:11:31.655Z,8.00
2022-12-16T11:15:27.207Z,8.45
2022-12-16T11:18:37.655Z,8.10
2022-12-16T11:21:57.376Z,7.68
2022-12-16T11:25:38.096Z,8.23
2022-12-16T11:28:57.973Z,7.50
2022-12-16T11:32:43.034Z,7.25
2022-12-16T11:36:08.087Z,7.75
2022-12-16T11:39:37.954Z,7.57
2022-12-16T11:43:02.652Z,6.47
2022-12-16T11:46:34.567Z,6.60
2022-12-16T11:49:54.743Z,6.80
2022-12-16T11:53:15.755Z,6.65
2022-12-16T11:56:41.858Z,6.65
2022-12-16T12:00:12.287Z,7.00
2022-12-16T12:03:43.095Z,6.30
2022-12-16T12:07:13.685Z,6.50
2022-12-16T12:11:04.812Z,6.28
2022-12-16T12:14:30.955Z,6.10
2022-12-16T12:18:07.599Z,5.70
2022-12-16T12:21:36.377Z,5.68
2022-12-16T12:25:08.742Z,5.05
2022-12-16T12:28:50.295Z,4.90
2022-12-16T12:32:39.044Z,4.88
2022-12-16T12:36:13.337Z,4.57
2022-12-16T12:39:40.872Z,4.45
2022-12-16T12:43:11.415Z,4.50
2022-12-16T12:46:45.363Z,4.20
2022-12-16T12:50:32.356Z,4.18
2022-12-16T12:54:20.405Z,4.35
2022-12-16T12:57:44.892Z,3.88
2022-12-16T13:01:10.715Z,4.75
2022-12-16T13:04:33.866Z,4.10
2022-12-16T13:07:53.648Z,3.88
2022-12-16T13:11:35.268Z,3.97
2022-12-16T13:14:55.801Z,3.80
2022-12-16T13:18:21.697Z,3.70
2022-12-16T13:21:57.037Z,3.90
2022-12-16T13:25:30.995Z,3.78
2022-12-16T13:28:53.997Z,4.00
2022-12-16T13:32:26.079Z,3.53
2022-12-16T13:35:45.906Z,3.28
2022-12-16T13:39:11.615Z,3.63
2022-12-16T13:43:06.479Z,3.53
2022-12-16T13:46:26.378Z,3.40
2022-12-16T13:50:05.550Z,3.67
2022-12-16T13:53:28.400Z,3.03
2022-12-16T13:57:06.862Z,3.40
2022-12-16T14:00:38.453Z,3.10
2022-12-16T14:04:03.505Z,3.15
2022-12-16T14:07:24.974Z,3.25
2022-12-16T14:10:59.520Z,3.30
2022-12-16T14:14:43.781Z,3.30
2022-12-16T14:18:22.000Z,3.10
2022-12-16T14:21:51.462Z,3.17
2022-12-16T14:25:11.890Z,2.80
2022-12-16T14:28:40.929Z,3.03
2022-12-16T14:32:02.873Z,3.13
2022-12-16T14:35:30.103Z,2.70
2022-12-16T14:38:50.022Z,2.90
2022-12-16T14:42:10.625Z,2.95
2022-12-16T14:45:54.359Z,2.70
2022-12-16T14:49:14.980Z,2.60
2022-12-16T14:52:43.085Z,2.80
2022-12-16T14:56:03.204Z,3.03
2022-12-16T14:59:41.179Z,2.63
2022-12-16T15:03:04.820Z,2.47
2022-12-16T15:06:35.259Z,2.80
2022-12-16T15:09:59.889Z,2.67
2022-12-16T15:13:20.534Z,3.63
2022-12-16T15:16:52.543Z,2.65
2022-12-16T15:20:12.806Z,2.58
2022-12-16T15:23:41.765Z,2.80
2022-12-16T15:27:01.848Z,2.42
2022-12-16T15:30:51.143Z,2.38
2022-12-16T15:34:43.199Z,2.45
2022-12-16T15:38:04.754Z,2.58
2022-12-16T15:41:25.482Z,2.60
2022-12-16T15:44:47.289Z,2.60
2022-12-16T15:48:09.261Z,2.40
2022-12-16T15:51:51.435Z,2.40
2022-12-16T15:55:13.353Z,2.38
2022-12-16T15:58:46.973Z,2.30
2022-12-16T16:02:06.930Z,2.30
2022-12-16T16:05:37.295Z,2.72
2022-12-16T16:08:57.087Z,2.17
2022-12-16T16:12:17.474Z,2.40
2022-12-16T16:15:37.543Z,3.40
2022-12-16T16:18:59.744Z,5.90
2022-12-16T16:22:19.599Z,7.60
2022-12-16T16:25:39.505Z,8.63
2022-12-16T16:28:59.423Z,9.38
2022-12-16T16:32:20.837Z,9.60
2022-12-16T16:35:40.978Z,8.95
2022-12-16T16:39:17.634Z,9.38
2022-12-16T16:42:37.519Z,8.77
2022-12-16T16:45:57.373Z,8.55
2022-12-16T16:49:18.554Z,9.07
2022-12-16T16:52:41.350Z,8.65
2022-12-16T16:56:01.665Z,8.60
2022-12-16T16:59:23.408Z,8.45
2022-12-16T17:02:43.838Z,7.75
2022-12-16T17:06:04.098Z,7.57
2022-12-16T17:09:40.766Z,7.30
2022-12-16T17:13:04.409Z,7.22
2022-12-16T17:16:25.078Z,6.57
2022-12-16T17:19:45.163Z,6.07
2022-12-16T17:23:05.056Z,6.13
2022-12-16T17:26:29.495Z,6.00
2022-12-16T17:29:49.500Z,6.00
2022-12-16T17:33:09.467Z,5.40
2022-12-16T17:36:32.117Z,4.82
2022-12-16T17:39:52.371Z,4.53
2022-12-16T17:43:12.240Z,4.75
2022-12-16T17:46:32.357Z,4.15
2022-12-16T17:49:52.657Z,3.90
2022-12-16T17:53:14.296Z,4.25
2022-12-16T17:56:34.239Z,3.33
2022-12-16T17:59:54.839Z,3.42
2022-12-16T18:03:15.067Z,3.70
2022-12-16T18:06:35.107Z,3.55
2022-12-16T18:09:55.471Z,3.38
2022-12-16T18:13:15.756Z,3.30
2022-12-16T18:16:35.817Z,3.17
2022-12-16T18:19:56.048Z,3.00
2022-12-16T18:23:16.386Z,3.33
2022-12-16T18:26:36.535Z,3.10
2022-12-16T18:29:56.389Z,2.97
2022-12-16T18:33:16.918Z,3.35
2022-12-16T18:36:37.188Z,2.80
2022-12-16T18:39:57.022Z,2.90
2022-12-16T18:43:17.649Z,2.85
2022-12-16T18:46:37.577Z,2.60
2022-12-16T18:49:57.655Z,3.08
2022-12-16T18:53:17.850Z,2.92
2022-12-16T18:56:37.634Z,2.80
2022-12-16T18:59:59.386Z,2.80
2022-12-16T19:03:19.307Z,2.90
2022-12-16T19:06:39.710Z,2.88
2022-12-16T19:09:59.886Z,2.67
2022-12-16T19:13:19.638Z,2.80
2022-12-16T19:16:39.807Z,2.50
2022-12-16T19:19:59.900Z,2.90
2022-12-16T19:23:20.235Z,2.30
2022-12-16T19:26:40.672Z,2.80
2022-12-16T19:30:00.917Z,2.63
2022-12-16T19:33:21.161Z,2.63
2022-12-16T19:36:46.557Z,2.90
2022-12-16T19:40:06.950Z,2.60
2022-12-16T19:43:26.918Z,2.63
2022-12-16T19:46:46.735Z,2.60
2022-12-16T19:50:06.653Z,2.70
2022-12-16T19:53:26.902Z,2.65
2022-12-16T19:56:46.866Z,2.55
2022-12-16T20:00:06.704Z,2.60
2022-12-16T20:03:36.988Z,2.63
2022-12-16T20:06:57.296Z,2.75
2022-12-16T20:10:17.269Z,2.50
2022-12-16T20:13:37.645Z,2.50
2022-12-16T20:16:59.125Z,2.80
2022-12-16T20:20:19.238Z,2.75
2022-12-16T20:23:39.044Z,2.60
2022-12-16T20:26:59.179Z,2.72
2022-12-16T20:30:19.563Z,2.75
2022-12-16T20:33:39.787Z,2.72
2022-12-16T20:37:00.243Z,2.97
2022-12-16T20:40:20.696Z,5.32
2022-12-16T20:43:40.935Z,3.30
2022-12-16T20:47:01.393Z,3.30
2022-12-16T20:50:21.677Z,2.88
2022-12-16T20:53:42.279Z,2.45
2022-12-16T20:57:05.862Z,2.83
2022-12-16T21:00:27.752Z,3.28
2022-12-16T21:03:48.012Z,2.58
2022-12-16T21:07:08.131Z,2.83
2022-12-16T21:10:28.554Z,3.10
2022-12-16T21:13:49.356Z,2.58
2022-12-16T21:17:09.896Z,2.80
2022-12-16T21:20:30.032Z,2.60
2022-12-16T21:23:50.170Z,2.70
2022-12-16T21:27:10.031Z,2.72
2022-12-16T21:30:30.395Z,2.63
2022-12-16T21:33:50.723Z,2.55
2022-12-16T21:37:11.919Z,2.60
2022-12-16T21:40:32.131Z,2.55
2022-12-16T21:43:52.296Z,2.50
2022-12-16T21:47:13.470Z,2.38
2022-12-16T21:50:33.510Z,2.33
2022-12-16T21:53:53.798Z,2.42
2022-12-16T21:57:13.827Z,2.40
2022-12-16T22:00:34.468Z,2.42
2022-12-16T22:03:56.664Z,2.50
2022-12-16T22:07:16.877Z,2.70
2022-12-16T22:10:36.732Z,2.33
2022-12-16T22:13:56.989Z,2.33
2022-12-16T22:17:16.939Z,2.30
2022-12-16T22:20:37.138Z,2.40
2022-12-16T22:23:56.821Z,2.30
2022-12-16T22:27:16.925Z,2.40
2022-12-16T22:30:36.892Z,2.20
2022-12-16T22:33:57.404Z,2.40
2022-12-16T22:37:17.428Z,2.30
2022-12-16T22:40:37.923Z,2.63
2022-12-16T22:43:58.051Z,2.22
2022-12-16T22:47:17.842Z,2.50
2022-12-16T22:50:37.886Z,2.40
2022-12-16T22:53:57.834Z,2.40
2022-12-16T22:57:17.778Z,2.30
2022-12-16T23:00:38.179Z,2.35
2022-12-16T23:03:57.981Z,2.50
2022-12-16T23:07:17.903Z,2.28
2022-12-16T23:10:37.790Z,2.33
2022-12-16T23:13:57.723Z,2.47
2022-12-16T23:17:17.579Z,2.17
2022-12-16T23:20:37.305Z,2.30
2022-12-16T23:23:57.249Z,2.47
2022-12-16T23:27:17.443Z,2.38
2022-12-16T23:30:37.430Z,2.17
2022-12-16T23:33:57.548Z,2.50
2022-12-16T23:37:17.361Z,2.30
2022-12-16T23:40:37.493Z,2.25
2022-12-16T23:43:57.331Z,2.53
2022-12-16T23:47:17.438Z,2.13
2022-12-16T23:50:37.345Z,2.20
2022-12-16T23:53:57.751Z,2.35
2022-12-16T23:57:17.944Z,2.40
